Time;durP1;ratioP1;P1;durP2;ratioP2;P2;SDS_P1;SDS_P2;PMS_P1;PMS_P2;Temp;Humidity;BMP_temperature;BMP_pressure;BME280_temperature;BME280_humidity;BME280_pressure;Samples;Min_cycle;Max_cycle;Signal;HPM_P1;HPM_P2
2023/12/01 00:01:55;;;;;;;16.40;13.10;;;3.30;31.40;;;;;;5022235;28;20582;-64
2023/12/01 00:04:22;;;;;;;16.47;13.23;;;3.30;31.40;;;;;;5023411;28;20473;-64
2023/12/01 00:06:49;;;;;;;19.27;15.07;;;3.30;31.40;;;;;;5028299;28;21025;-64
2023/12/01 00:09:16;;;;;;;19.53;14.80;;;3.30;31.40;;;;;;5026196;28;20557;-64
2023/12/01 00:11:42;;;;;;;20.33;14.00;;;3.30;31.50;;;;;;5023359;28;20460;-64
2023/12/01 00:14:09;;;;;;;17.77;12.50;;;3.30;31.60;;;;;;5025004;28;20463;-64
2023/12/01 00:16:36;;;;;;;21.50;14.40;;;3.30;31.60;;;;;;5022660;28;20474;-64
2023/12/01 00:19:04;;;;;;;18.70;14.20;;;3.30;31.60;;;;;;5023967;28;20993;-64
2023/12/01 00:21:31;;;;;;;22.87;15.90;;;3.30;31.70;;;;;;5023123;28;20545;-64
2023/12/01 00:23:58;;;;;;;19.80;13.67;;;3.40;31.70;;;;;;5025935;28;20971;-64
2023/12/01 00:26:25;;;;;;;19.67;14.50;;;3.40;31.70;;;;;;5025568;28;20486;-64
2023/12/01 00:28:52;;;;;;;21.97;14.90;;;3.40;31.60;;;;;;5024937;28;20802;-64
2023/12/01 00:31:18;;;;;;;21.50;15.57;;;3.40;31.60;;;;;;5024481;28;20471;-64
2023/12/01 00:33:45;;;;;;;22.50;15.83;;;3.40;31.60;;;;;;5024215;28;20469;-64
2023/12/01 00:36:14;;;;;;;21.80;15.90;;;3.40;31.60;;;;;;5024051;28;20477;-64
2023/12/01 00:38:41;;;;;;;20.50;15.63;;;3.40;31.70;;;;;;5024275;28;20469;-64
2023/12/01 00:41:08;;;;;;;20.00;15.23;;;3.40;31.60;;;;;;5027244;28;20462;-64
2023/12/01 00:43:36;;;;;;;22.60;16.40;;;3.50;31.60;;;;;;5024812;28;20455;-64
2023/12/01 00:46:03;;;;;;;22.67;15.90;;;3.50;31.80;;;;;;5022270;28;20477;-64
2023/12/01 00:48:30;;;;;;;22.10;15.63;;;3.40;31.60;;;;;;5023860;28;20473;-64
2023/12/01 00:50:57;;;;;;;20.87;16.40;;;3.50;31.60;;;;;;5022988;28;20455;-64
2023/12/01 00:53:26;;;;;;;21.20;16.70;;;3.50;31.70;;;;;;5026484;28;20816;-64
2023/12/01 00:55:53;;;;;;;19.63;15.60;;;3.50;31.40;;;;;;5027063;28;20932;-64
2023/12/01 00:58:19;;;;;;;19.70;14.80;;;3.50;31.40;;;;;;5025758;28;20463;-64
2023/12/01 01:00:46;;;;;;;19.47;14.30;;;3.50;31.40;;;;;;5028163;28;20480;-64
2023/12/01 01:03:14;;;;;;;22.50;14.20;;;3.50;31.40;;;;;;5022156;28;20963;-64
2023/12/01 01:05:41;;;;;;;19.40;14.60;;;3.50;31.50;;;;;;5025869;28;20510;-64
2023/12/01 01:08:08;;;;;;;25.57;14.03;;;3.50;31.30;;;;;;5021674;28;21002;-64
2023/12/01 01:10:36;;;;;;;18.70;13.70;;;3.50;31.30;;;;;;5030646;28;20459;-64
2023/12/01 01:13:03;;;;;;;22.10;13.37;;;3.50;31.30;;;;;;5030038;28;20520;-64
2023/12/01 01:15:30;;;;;;;16.77;12.80;;;3.50;31.30;;;;;;5030063;28;21001;-64
2023/12/01 01:17:57;;;;;;;17.87;13.30;;;3.50;31.40;;;;;;5029974;28;20518;-64
2023/12/01 01:20:24;;;;;;;22.27;14.43;;;3.50;31.40;;;;;;5026930;28;20460;-64
2023/12/01 01:22:51;;;;;;;19.50;15.30;;;3.50;31.50;;;;;;5028892;28;20465;-64
2023/12/01 01:25:18;;;;;;;18.97;14.40;;;3.40;31.40;;;;;;5029168;28;20487;-64
2023/12/01 01:27:46;;;;;;;45.50;15.80;;;3.50;31.30;;;;;;5026323;28;21065;-64
2023/12/01 01:30:13;;;;;;;18.80;13.10;;;3.50;31.30;;;;;;5026068;28;20462;-64
2023/12/01 01:32:40;;;;;;;14.80;12.63;;;3.50;31.30;;;;;;5024123;28;20977;-64
2023/12/01 01:35:07;;;;;;;20.27;14.63;;;3.50;31.30;;;;;;5028085;28;20494;-64
2023/12/01 01:37:34;;;;;;;18.43;13.97;;;3.50;31.20;;;;;;5025030;28;20514;-64
2023/12/01 01:40:01;;;;;;;18.17;15.03;;;3.50;31.30;;;;;;5027103;28;21053;-64
2023/12/01 01:42:28;;;;;;;22.30;18.57;;;3.50;31.30;;;;;;5027754;28;20848;-64
2023/12/01 01:44:56;;;;;;;21.60;17.67;;;3.50;31.10;;;;;;5026388;28;20458;-64
2023/12/01 01:47:23;;;;;;;20.10;15.77;;;3.50;31.00;;;;;;5025342;28;20562;-64
2023/12/01 01:49:50;;;;;;;20.77;17.23;;;3.50;31.20;;;;;;5025818;28;20809;-64
2023/12/01 01:52:19;;;;;;;49.90;16.53;;;3.50;31.20;;;;;;5029731;28;20467;-64
2023/12/01 01:54:46;;;;;;;23.10;13.87;;;3.50;30.90;;;;;;5025984;28;20550;-64
2023/12/01 01:57:13;;;;;;;18.70;13.37;;;3.60;31.00;;;;;;5029108;28;21306;-64
2023/12/01 01:59:40;;;;;;;18.20;13.93;;;3.60;31.00;;;;;;5023836;28;20964;-64
2023/12/01 02:02:09;;;;;;;15.37;11.57;;;3.50;30.90;;;;;;5028844;28;20471;-64
2023/12/01 02:04:36;;;;;;;18.33;12.57;;;3.50;31.00;;;;;;5029066;28;20477;-64
2023/12/01 02:07:03;;;;;;;16.80;13.00;;;3.60;30.90;;;;;;5029207;28;20545;-64
2023/12/01 02:09:33;;;;;;;17.50;12.20;;;3.60;31.00;;;;;;5022772;28;20466;-64
2023/12/01 02:12:00;;;;;;;15.70;11.43;;;3.50;31.00;;;;;;5026467;28;20459;-64
2023/12/01 02:14:26;;;;;;;20.80;12.07;;;3.60;31.00;;;;;;5027403;28;20947;-64
2023/12/01 02:16:53;;;;;;;16.63;12.53;;;3.50;31.00;;;;;;5027814;28;20481;-64
2023/12/01 02:19:21;;;;;;;19.73;13.57;;;3.50;31.10;;;;;;5027826;28;20459;-64
2023/12/01 02:21:51;;;;;;;16.67;12.70;;;3.50;30.90;;;;;;5025732;28;20459;-64
2023/12/01 02:24:18;;;;;;;15.53;12.47;;;3.50;30.80;;;;;;5029609;28;20904;-64
2023/12/01 02:26:45;;;;;;;14.57;11.00;;;3.60;30.90;;;;;;5026272;28;20498;-64
2023/12/01 02:29:11;;;;;;;17.07;12.10;;;3.60;30.90;;;;;;5026824;28;20469;-64
2023/12/01 02:31:38;;;;;;;15.30;11.40;;;3.60;31.00;;;;;;5028217;28;20558;-64
2023/12/01 02:34:05;;;;;;;15.73;12.40;;;3.60;30.80;;;;;;5023420;28;21220;-64
2023/12/01 02:36:32;;;;;;;18.20;13.20;;;3.60;30.80;;;;;;5027110;28;20475;-64
2023/12/01 02:39:00;;;;;;;17.30;13.30;;;3.60;30.90;;;;;;5025360;28;20470;-64
2023/12/01 02:41:27;;;;;;;18.03;12.50;;;3.60;30.70;;;;;;5028034;28;21041;-64
2023/12/01 02:43:55;;;;;;;15.10;11.67;;;3.60;30.60;;;;;;5026619;28;20455;-64
2023/12/01 02:46:23;;;;;;;18.43;13.40;;;3.60;30.70;;;;;;5026329;28;20577;-64
2023/12/01 02:48:50;;;;;;;16.00;12.27;;;3.60;30.70;;;;;;5027376;28;20947;-64
2023/12/01 02:51:17;;;;;;;17.00;12.67;;;3.60;30.80;;;;;;5028358;28;20494;-64
2023/12/01 02:53:44;;;;;;;22.87;14.00;;;3.60;30.70;;;;;;5022835;28;20561;-64
2023/12/01 02:56:12;;;;;;;15.23;11.30;;;3.60;30.70;;;;;;5027052;28;20795;-64
2023/12/01 02:58:39;;;;;;;18.40;11.87;;;3.50;30.70;;;;;;5026441;28;20459;-64
2023/12/01 03:01:06;;;;;;;15.40;11.80;;;3.50;30.70;;;;;;5025534;28;20463;-64
2023/12/01 03:03:33;;;;;;;16.30;12.40;;;3.50;30.90;;;;;;5024479;28;21037;-64
2023/12/01 03:06:00;;;;;;;19.17;11.93;;;3.50;31.00;;;;;;5025323;28;20483;-64
2023/12/01 03:08:27;;;;;;;21.50;13.57;;;3.50;31.00;;;;;;5025184;28;21038;-64
2023/12/01 03:10:55;;;;;;;16.10;11.80;;;3.50;30.90;;;;;;5025759;28;20466;-64
2023/12/01 03:13:23;;;;;;;28.80;12.90;;;3.50;31.00;;;;;;5025581;28;20470;-64
2023/12/01 03:15:51;;;;;;;26.10;13.60;;;3.50;31.00;;;;;;5026365;28;20458;-64
2023/12/01 03:18:18;;;;;;;55.10;14.37;;;3.40;31.20;;;;;;5027461;28;20463;-64
2023/12/01 03:20:45;;;;;;;15.40;11.60;;;3.30;31.40;;;;;;5025495;28;20570;-64
2023/12/01 03:23:12;;;;;;;17.37;11.87;;;3.30;31.50;;;;;;5027169;28;20462;-64
2023/12/01 03:25:39;;;;;;;15.87;12.40;;;3.30;31.60;;;;;;5023071;28;20474;-64
2023/12/01 03:28:05;;;;;;;16.47;12.70;;;3.40;31.50;;;;;;5025664;28;20996;-64
2023/12/01 03:30:34;;;;;;;12.97;10.77;;;3.40;31.30;;;;;;5025705;28;20455;-64
2023/12/01 03:33:00;;;;;;;13.30;9.87;;;3.40;31.30;;;;;;5026186;28;20467;-64
2023/12/01 03:35:27;;;;;;;12.87;9.67;;;3.40;32.00;;;;;;5026849;28;20447;-64
2023/12/01 03:37:56;;;;;;;12.10;10.23;;;3.50;31.30;;;;;;5027221;28;20525;-64
2023/12/01 03:40:24;;;;;;;14.40;10.90;;;3.50;31.30;;;;;;5023568;28;20490;-64
2023/12/01 03:42:51;;;;;;;13.00;10.50;;;3.50;31.10;;;;;;5022833;28;20487;-64
2023/12/01 03:45:18;;;;;;;14.77;10.93;;;3.60;31.10;;;;;;5023793;28;20513;-64
2023/12/01 03:47:48;;;;;;;13.53;10.77;;;3.60;31.00;;;;;;5024626;28;20489;-64
2023/12/01 03:50:15;;;;;;;13.50;11.00;;;3.60;31.20;;;;;;5026946;28;20978;-64
2023/12/01 03:52:43;;;;;;;12.90;10.60;;;3.60;31.20;;;;;;5023872;28;20878;-64
2023/12/01 03:55:10;;;;;;;12.80;10.40;;;3.60;31.20;;;;;;5027803;28;20459;-64
2023/12/01 03:57:38;;;;;;;13.37;10.10;;;3.60;31.20;;;;;;5023916;28;20835;-64
2023/12/01 04:00:08;;;;;;;12.83;10.40;;;3.60;31.20;;;;;;5026280;28;20875;-64
2023/12/01 04:02:38;;;;;;;13.30;10.47;;;3.60;31.20;;;;;;5026586;28;20490;-64
2023/12/01 04:05:08;;;;;;;13.07;10.17;;;3.60;31.20;;;;;;5023825;28;20463;-64
2023/12/01 04:07:35;;;;;;;20.60;10.97;;;3.60;31.20;;;;;;5025993;28;20566;-64
2023/12/01 04:10:03;;;;;;;14.70;10.10;;;3.60;31.10;;;;;;5027004;28;20821;-64
2023/12/01 04:12:30;;;;;;;13.17;10.57;;;3.60;31.10;;;;;;5024428;28;20471;-64
2023/12/01 04:14:58;;;;;;;48.13;13.30;;;3.60;31.00;;;;;;5023657;28;20463;-64
2023/12/01 04:17:25;;;;;;;15.00;11.70;;;3.60;31.00;;;;;;5026124;28;20569;-64
2023/12/01 04:19:52;;;;;;;14.27;11.30;;;3.60;31.10;;;;;;5021536;28;20450;-64
2023/12/01 04:22:20;;;;;;;16.07;12.50;;;3.60;31.10;;;;;;5025384;28;20455;-64
2023/12/01 04:24:48;;;;;;;16.23;12.53;;;3.60;31.10;;;;;;5023143;28;20462;-64
2023/12/01 04:27:15;;;;;;;14.97;12.97;;;3.60;31.10;;;;;;5020885;28;20486;-64
2023/12/01 04:29:42;;;;;;;14.50;12.90;;;3.60;31.10;;;;;;5026905;28;20469;-64
2023/12/01 04:32:08;;;;;;;14.37;12.13;;;3.60;31.20;;;;;;5021977;28;20478;-64
2023/12/01 04:34:35;;;;;;;14.37;11.40;;;3.60;31.10;;;;;;5024681;28;20454;-64
2023/12/01 04:37:09;;;;;;;19.27;10.47;;;3.50;31.00;;;;;;5034492;23;20494;-67
2023/12/01 04:39:37;;;;;;;19.57;11.63;;;3.60;31.10;;;;;;5039192;28;20552;-67
2023/12/01 04:42:05;;;;;;;13.20;10.50;;;3.50;31.10;;;;;;5044011;28;21006;-67
2023/12/01 04:44:31;;;;;;;17.90;11.33;;;3.50;31.10;;;;;;5049626;28;20458;-67
2023/12/01 04:46:59;;;;;;;15.40;10.90;;;3.50;31.20;;;;;;5047649;28;20572;-67
2023/12/01 04:49:26;;;;;;;14.67;11.80;;;3.50;31.20;;;;;;5046869;28;20811;-67
2023/12/01 04:51:53;;;;;;;13.00;10.23;;;3.50;31.80;;;;;;5048742;28;20718;-67
2023/12/01 04:54:20;;;;;;;14.03;10.37;;;3.50;31.30;;;;;;5051085;28;20549;-67
2023/12/01 04:56:48;;;;;;;13.10;9.93;;;3.50;31.30;;;;;;5043425;28;20485;-70
2023/12/01 04:59:15;;;;;;;21.20;11.23;;;3.50;31.20;;;;;;5045768;28;20457;-68
2023/12/01 05:01:42;;;;;;;15.23;9.80;;;3.50;31.30;;;;;;5046637;28;20477;-68
2023/12/01 05:04:08;;;;;;;16.13;10.93;;;3.40;31.40;;;;;;5046669;28;20461;-67
2023/12/01 05:06:35;;;;;;;20.57;10.20;;;3.40;31.50;;;;;;5046277;28;20487;-67
2023/12/01 05:09:02;;;;;;;18.77;10.73;;;3.40;31.60;;;;;;5044672;28;20464;-67
2023/12/01 05:11:29;;;;;;;12.60;9.60;;;3.30;31.70;;;;;;5045382;28;20465;-67
2023/12/01 05:13:57;;;;;;;13.50;10.20;;;3.30;31.90;;;;;;5045661;28;20464;-67
2023/12/01 05:16:24;;;;;;;12.20;10.00;;;3.30;32.00;;;;;;5041369;28;20485;-67
2023/12/01 05:18:51;;;;;;;26.60;11.23;;;3.30;31.90;;;;;;5045802;28;20498;-68
2023/12/01 05:21:18;;;;;;;14.43;10.30;;;3.30;31.90;;;;;;5044879;28;20966;-68
2023/12/01 05:23:45;;;;;;;15.07;10.47;;;3.30;32.20;;;;;;5046823;28;20472;-68
2023/12/01 05:26:11;;;;;;;14.67;11.30;;;3.20;32.20;;;;;;5045643;28;20477;-68
2023/12/01 05:28:38;;;;;;;14.53;10.37;;;3.30;32.10;;;;;;5046847;28;20557;-67
2023/12/01 05:31:07;;;;;;;13.77;10.60;;;3.30;32.10;;;;;;5046578;28;20478;-68
2023/12/01 05:33:38;;;;;;;13.90;9.77;;;3.30;32.20;;;;;;5043325;28;20541;-68
2023/12/01 05:36:08;;;;;;;15.47;9.77;;;3.30;32.30;;;;;;5045579;28;20462;-67
2023/12/01 05:38:35;;;;;;;14.07;10.57;;;3.30;32.20;;;;;;5043698;28;20481;-67
2023/12/01 05:41:02;;;;;;;12.67;9.57;;;3.30;32.10;;;;;;5054865;28;20528;-68
2023/12/01 05:43:29;;;;;;;12.70;9.13;;;3.40;32.60;;;;;;5053689;28;20908;-68
2023/12/01 05:45:56;;;;;;;13.93;9.87;;;3.40;32.00;;;;;;5045807;28;20950;-67
2023/12/01 05:48:25;;;;;;;13.50;9.37;;;3.40;31.90;;;;;;5032423;28;20486;-68
2023/12/01 05:50:52;;;;;;;13.40;9.40;;;3.40;31.80;;;;;;5045924;28;20466;-67
2023/12/01 05:53:18;;;;;;;12.20;9.87;;;3.40;31.80;;;;;;5042134;28;20876;-68
2023/12/01 05:55:45;;;;;;;12.23;9.13;;;3.40;31.70;;;;;;5047216;28;20505;-68
2023/12/01 05:58:14;;;;;;;11.03;8.77;;;3.40;31.70;;;;;;5048834;28;20446;-68
2023/12/01 06:00:41;;;;;;;11.10;8.63;;;3.50;31.80;;;;;;5046238;28;20480;-68
2023/12/01 06:03:09;;;;;;;12.60;8.50;;;3.50;31.70;;;;;;5044278;28;20465;-68
2023/12/01 06:05:39;;;;;;;11.00;7.90;;;3.50;31.70;;;;;;5045894;28;20497;-67
2023/12/01 06:08:08;;;;;;;10.67;8.50;;;3.50;31.70;;;;;;5046025;28;20478;-67
2023/12/01 06:10:35;;;;;;;13.90;9.60;;;3.50;31.80;;;;;;5048171;28;20565;-67
2023/12/01 06:13:03;;;;;;;23.60;10.67;;;3.50;31.70;;;;;;5046245;28;20545;-67
2023/12/01 06:15:30;;;;;;;12.80;9.40;;;3.40;31.70;;;;;;5047599;28;20468;-66
2023/12/01 06:17:58;;;;;;;21.17;10.40;;;3.40;31.80;;;;;;5046274;28;21017;-67
2023/12/01 06:20:25;;;;;;;36.43;10.60;;;3.40;31.90;;;;;;5045225;28;20481;-67
2023/12/01 06:22:56;;;;;;;11.47;8.53;;;3.40;32.00;;;;;;5046706;28;20466;-67
2023/12/01 06:25:27;;;;;;;13.53;9.47;;;3.40;32.10;;;;;;5043934;28;20462;-67
2023/12/01 06:27:56;;;;;;;11.43;8.60;;;3.40;32.10;;;;;;5044962;28;20482;-67
2023/12/01 06:30:24;;;;;;;13.63;10.20;;;3.40;32.10;;;;;;5040025;28;20462;-66
2023/12/01 06:32:51;;;;;;;15.67;13.30;;;3.40;32.10;;;;;;5046691;28;20544;-67
2023/12/01 06:35:19;;;;;;;13.57;11.13;;;3.40;32.10;;;;;;5044092;28;20469;-67
2023/12/01 06:37:47;;;;;;;12.80;10.00;;;3.40;32.10;;;;;;5045821;28;20982;-67
2023/12/01 06:40:17;;;;;;;13.07;9.60;;;3.40;32.20;;;;;;5043436;28;20461;-66
2023/12/01 06:42:45;;;;;;;15.63;10.77;;;3.40;32.10;;;;;;5047157;28;20472;-66
2023/12/01 06:45:13;;;;;;;14.20;10.97;;;3.40;32.00;;;;;;5042884;28;20458;-66
2023/12/01 06:47:41;;;;;;;18.20;11.60;;;3.50;32.00;;;;;;5044447;28;20553;-65
2023/12/01 06:50:10;;;;;;;15.67;12.40;;;3.50;32.00;;;;;;5045222;28;20592;-66
2023/12/01 06:52:37;;;;;;;15.93;11.50;;;3.50;32.10;;;;;;5045942;28;20537;-65
2023/12/01 06:55:06;;;;;;;16.00;12.30;;;3.40;32.00;;;;;;5044868;28;20458;-66
2023/12/01 06:57:36;;;;;;;15.77;12.73;;;3.50;32.50;;;;;;5044903;28;20852;-65
2023/12/01 07:00:07;;;;;;;17.33;12.60;;;3.50;31.90;;;;;;5043202;28;20462;-65
2023/12/01 07:02:35;;;;;;;15.70;11.90;;;3.50;31.90;;;;;;5041661;28;21001;-66
2023/12/01 07:05:02;;;;;;;14.13;10.33;;;3.50;31.90;;;;;;5045231;28;20472;-66
2023/12/01 07:07:30;;;;;;;15.50;11.10;;;3.50;31.90;;;;;;5040073;28;20963;-67
2023/12/01 07:09:58;;;;;;;14.30;10.27;;;3.50;31.80;;;;;;5046117;28;20472;-67
2023/12/01 07:12:25;;;;;;;14.90;10.30;;;3.50;31.90;;;;;;5046619;28;20462;-67
2023/12/01 07:14:53;;;;;;;12.60;9.97;;;3.50;31.80;;;;;;5045952;28;20458;-67
2023/12/01 07:17:20;;;;;;;13.80;9.30;;;3.50;31.80;;;;;;5044729;28;20486;-67
2023/12/01 07:19:47;;;;;;;14.30;10.37;;;3.60;31.70;;;;;;5041387;28;20988;-68
2023/12/01 07:22:14;;;;;;;14.13;10.83;;;3.60;31.70;;;;;;5044323;28;20476;-67
2023/12/01 07:24:41;;;;;;;13.37;10.40;;;3.60;31.70;;;;;;5043846;28;20469;-67
2023/12/01 07:27:09;;;;;;;17.13;12.27;;;3.60;32.20;;;;;;5044508;28;20490;-67
2023/12/01 07:29:38;;;;;;;15.70;10.73;;;3.60;31.60;;;;;;5042664;28;20466;-67
2023/12/01 07:32:07;;;;;;;16.53;12.00;;;3.60;31.60;;;;;;5046266;28;20468;-67
2023/12/01 07:34:34;;;;;;;15.60;11.10;;;3.70;31.70;;;;;;5045783;28;20556;-68
2023/12/01 07:37:00;;;;;;;18.30;12.67;;;3.70;31.60;;;;;;5046236;28;20879;-68
2023/12/01 07:39:27;;;;;;;16.93;12.20;;;3.70;31.60;;;;;;5038818;28;20455;-71
2023/12/01 07:41:56;;;;;;;14.73;13.10;;;3.70;31.50;;;;;;5045828;28;20454;-69
2023/12/01 07:44:23;;;;;;;16.87;14.10;;;3.80;31.50;;;;;;5043115;28;21348;-69
2023/12/01 07:46:50;;;;;;;17.03;13.20;;;3.70;31.50;;;;;;5047214;28;20482;-65
2023/12/01 07:49:18;;;;;;;23.73;14.93;;;3.80;31.40;;;;;;5042731;28;20485;-66
2023/12/01 07:51:45;;;;;;;23.23;14.83;;;3.80;31.30;;;;;;5043725;28;20458;-66
2023/12/01 07:54:12;;;;;;;16.70;13.07;;;3.80;31.30;;;;;;5039953;28;20477;-66
2023/12/01 07:56:38;;;;;;;16.27;11.93;;;3.80;31.30;;;;;;5042440;28;20478;-65
2023/12/01 07:59:06;;;;;;;35.23;16.07;;;3.80;31.20;;;;;;5046976;28;21343;-65
2023/12/01 08:01:33;;;;;;;18.60;12.60;;;3.80;31.10;;;;;;5048167;28;20466;-65
2023/12/01 08:04:00;;;;;;;20.20;13.70;;;3.80;31.20;;;;;;5047376;28;20460;-67
2023/12/01 08:06:28;;;;;;;18.10;13.30;;;3.80;31.20;;;;;;5039828;28;20487;-66
2023/12/01 08:08:55;;;;;;;18.20;12.83;;;3.80;31.30;;;;;;5047396;28;20576;-65
2023/12/01 08:11:22;;;;;;;17.53;12.67;;;3.90;31.10;;;;;;5046349;28;21271;-65
2023/12/01 08:13:49;;;;;;;20.03;14.20;;;3.90;31.10;;;;;;5048419;28;20454;-65
2023/12/01 08:16:17;;;;;;;15.53;12.40;;;4.00;30.90;;;;;;5045993;28;20485;-66
2023/12/01 08:18:44;;;;;;;19.27;13.40;;;3.90;30.90;;;;;;5045743;28;20450;-66
2023/12/01 08:21:11;;;;;;;17.40;12.80;;;3.90;31.00;;;;;;5040603;28;20839;-65
2023/12/01 08:23:40;;;;;;;18.90;14.70;;;4.00;30.90;;;;;;5042684;28;20449;-66
2023/12/01 08:26:09;;;;;;;19.27;12.57;;;4.00;31.30;;;;;;5039510;28;20223;-65
2023/12/01 08:28:36;;;;;;;16.43;13.20;;;4.00;30.80;;;;;;5045319;28;20478;-65
2023/12/01 08:31:04;;;;;;;17.73;12.60;;;4.10;30.50;;;;;;5046437;28;20478;-65
2023/12/01 08:33:31;;;;;;;18.23;13.37;;;4.10;30.30;;;;;;5047031;28;20465;-66
2023/12/01 08:35:59;;;;;;;15.60;10.67;;;4.10;30.20;;;;;;5071327;28;20508;-66
2023/12/01 08:38:25;;;;;;;17.40;13.30;;;4.20;30.10;;;;;;5055409;28;21220;-66
2023/12/01 08:40:54;;;;;;;18.63;13.17;;;4.10;30.00;;;;;;5045657;28;20477;-66
2023/12/01 08:43:20;;;;;;;18.43;12.60;;;4.20;30.00;;;;;;5043344;28;20454;-66
2023/12/01 08:45:47;;;;;;;19.60;14.37;;;4.20;30.60;;;;;;5046657;28;20458;-66
2023/12/01 08:48:14;;;;;;;16.87;13.73;;;4.20;29.90;;;;;;5046999;28;20478;-66
2023/12/01 08:50:41;;;;;;;22.23;16.23;;;4.20;29.70;;;;;;5047002;28;20461;-64
2023/12/01 08:53:08;;;;;;;19.77;15.03;;;4.20;29.70;;;;;;5046196;28;20464;-67
2023/12/01 08:55:36;;;;;;;18.57;13.30;;;4.20;29.80;;;;;;5043932;28;20550;-68
2023/12/01 08:58:05;;;;;;;14.50;11.57;;;4.20;29.60;;;;;;5041978;28;20474;-68
2023/12/01 09:00:32;;;;;;;15.70;11.20;;;4.20;29.60;;;;;;5041324;28;20450;-68
2023/12/01 09:02:58;;;;;;;15.83;12.27;;;4.20;29.40;;;;;;5044435;28;20879;-68
2023/12/01 09:05:25;;;;;;;17.00;12.70;;;4.20;29.10;;;;;;5043687;28;20450;-68
2023/12/01 09:07:52;;;;;;;15.40;11.50;;;4.30;29.20;;;;;;5044766;28;20489;-67
2023/12/01 09:10:22;;;;;;;15.83;11.67;;;4.30;29.10;;;;;;5043362;28;20472;-67
2023/12/01 09:12:50;;;;;;;16.77;12.93;;;4.30;29.00;;;;;;5044891;28;20458;-64
2023/12/01 09:15:18;;;;;;;19.00;13.23;;;4.30;29.10;;;;;;5043020;28;20472;-65
2023/12/01 09:17:45;;;;;;;16.80;12.83;;;4.40;28.90;;;;;;5021723;28;20490;-65
2023/12/01 09:20:12;;;;;;;15.07;11.33;;;4.40;28.80;;;;;;5043592;28;20820;-65
2023/12/01 09:22:39;;;;;;;16.13;12.30;;;4.40;28.80;;;;;;5048621;28;20458;-65
2023/12/01 09:25:07;;;;;;;14.63;11.33;;;4.50;28.90;;;;;;5042793;28;20504;-65
2023/12/01 09:27:34;;;;;;;17.20;11.53;;;4.40;28.70;;;;;;5043640;28;23328;-65
2023/12/01 09:30:01;;;;;;;16.10;11.60;;;4.40;28.70;;;;;;5050081;28;20461;-65
2023/12/01 09:32:29;;;;;;;16.37;12.10;;;4.50;28.60;;;;;;5046968;28;20482;-66
2023/12/01 09:34:56;;;;;;;16.30;11.20;;;4.50;28.50;;;;;;5049680;28;20461;-66
2023/12/01 09:37:23;;;;;;;15.40;11.83;;;4.60;28.20;;;;;;5048294;28;20489;-65
2023/12/01 09:39:51;;;;;;;17.10;11.77;;;4.50;28.80;;;;;;5047781;28;20469;-66
2023/12/01 09:42:22;;;;;;;16.23;10.70;;;4.60;28.10;;;;;;5048512;28;20966;-65
2023/12/01 09:44:51;;;;;;;15.40;10.90;;;4.60;28.00;;;;;;5047413;28;20458;-65
2023/12/01 09:47:21;;;;;;;15.80;11.13;;;4.60;27.80;;;;;;5045439;28;20490;-65
2023/12/01 09:49:50;;;;;;;18.77;13.80;;;4.60;27.70;;;;;;5043373;28;20478;-65
2023/12/01 09:52:17;;;;;;;15.40;11.07;;;4.70;27.80;;;;;;5044139;28;20820;-65
2023/12/01 09:54:44;;;;;;;17.07;11.10;;;4.70;27.40;;;;;;5048471;28;20498;-66
2023/12/01 09:57:12;;;;;;;16.97;11.77;;;4.70;28.00;;;;;;5048908;28;20582;-65
2023/12/01 09:59:39;;;;;;;16.23;11.70;;;4.70;27.30;;;;;;5046611;28;20465;-65
2023/12/01 10:02:06;;;;;;;17.60;12.87;;;4.70;27.30;;;;;;5047832;28;21044;-67
2023/12/01 10:04:34;;;;;;;15.83;12.17;;;4.70;27.10;;;;;;5041102;28;20468;-65
2023/12/01 10:07:04;;;;;;;15.20;11.57;;;4.70;27.10;;;;;;5046587;28;21063;-66
2023/12/01 10:09:32;;;;;;;18.00;14.67;;;4.80;27.00;;;;;;5047350;28;20844;-64
2023/12/01 10:12:07;;;;;;;17.57;13.57;;;4.70;27.10;;;;;;5045966;28;20505;-65
2023/12/01 10:14:35;;;;;;;17.90;12.03;;;4.60;27.10;;;;;;5044685;28;20799;-67
2023/12/01 10:17:03;;;;;;;17.10;12.53;;;4.60;27.10;;;;;;5044793;28;20985;-65
2023/12/01 10:19:32;;;;;;;17.40;12.63;;;4.70;27.20;;;;;;5047527;28;20457;-65
2023/12/01 10:21:59;;;;;;;17.87;13.00;;;4.70;27.00;;;;;;5044002;28;20489;-65
2023/12/01 10:24:27;;;;;;;18.73;13.50;;;4.70;26.90;;;;;;5046576;28;20462;-66
2023/12/01 10:26:56;;;;;;;16.83;12.03;;;4.70;26.80;;;;;;5048003;28;20477;-67
2023/12/01 10:29:28;;;;;;;16.00;12.07;;;4.70;26.80;;;;;;5044294;28;20478;-67
2023/12/01 10:32:00;;;;;;;16.30;13.30;;;4.70;27.30;;;;;;5045086;28;20484;-69
2023/12/01 10:34:27;;;;;;;17.70;12.87;;;4.70;26.60;;;;;;5046935;28;20465;-69
2023/12/01 10:36:54;;;;;;;18.40;12.50;;;4.70;26.50;;;;;;5042529;28;20492;-69
2023/12/01 10:39:25;;;;;;;16.70;12.77;;;4.70;26.50;;;;;;5044855;28;20939;-69
2023/12/01 10:41:56;;;;;;;19.90;13.93;;;4.70;26.60;;;;;;5044326;28;20454;-69
2023/12/01 10:44:24;;;;;;;16.63;11.13;;;4.70;26.50;;;;;;5043224;28;20457;-69
2023/12/01 10:46:52;;;;;;;16.23;11.33;;;4.70;26.40;;;;;;5046050;28;20478;-69
2023/12/01 10:49:20;;;;;;;16.53;12.50;;;4.70;26.40;;;;;;5045001;28;20478;-69
2023/12/01 10:51:52;;;;;;;16.83;11.63;;;4.70;26.50;;;;;;5040485;28;20516;-69
2023/12/01 10:54:21;;;;;;;16.03;10.90;;;4.70;26.50;;;;;;5041942;28;20458;-69
2023/12/01 10:57:07;;;;;;;17.80;12.27;;;4.70;27.00;;;;;;5043964;28;20474;-69
2023/12/01 10:59:35;;;;;;;17.10;11.50;;;4.70;26.50;;;;;;5040498;28;20895;-69
2023/12/01 11:04:34;;;;;;;15.43;11.23;;;4.70;26.30;;;;;;4987864;28;20503;-65
2023/12/01 11:07:12;;;;;;;18.90;13.00;;;4.70;26.10;;;;;;4981761;28;20579;-65
2023/12/01 11:09:48;;;;;;;18.50;11.87;;;4.80;26.10;;;;;;4989762;28;20484;-65
2023/12/01 11:12:27;;;;;;;17.13;11.50;;;4.80;25.90;;;;;;4990548;28;20466;-66
2023/12/01 11:14:55;;;;;;;20.07;12.20;;;4.80;26.00;;;;;;4991677;28;20457;-65
2023/12/01 11:17:22;;;;;;;16.40;11.67;;;4.70;25.90;;;;;;4989117;28;20563;-65
2023/12/01 11:19:49;;;;;;;17.60;12.13;;;4.80;25.90;;;;;;4989981;28;20449;-65
2023/12/01 11:22:27;;;;;;;20.43;12.97;;;4.80;25.70;;;;;;4996233;28;20456;-65
2023/12/01 11:24:56;;;;;;;20.70;14.03;;;4.80;25.80;;;;;;4989463;28;20957;-66
2023/12/01 11:27:26;;;;;;;19.30;13.40;;;4.80;25.70;;;;;;4986975;28;20894;-66
2023/12/01 11:30:06;;;;;;;17.27;12.37;;;4.70;25.50;;;;;;4990388;28;20543;-66
2023/12/01 11:32:33;;;;;;;17.50;11.57;;;4.70;25.70;;;;;;4989835;28;20474;-65
2023/12/01 11:35:04;;;;;;;17.73;11.77;;;4.70;25.40;;;;;;4993569;28;20456;-65
2023/12/01 11:38:07;;;;;;;18.50;12.17;;;4.70;25.70;;;;;;4988756;28;20495;-65
2023/12/01 11:40:40;;;;;;;16.93;11.67;;;4.70;25.90;;;;;;4985682;28;20472;-66
2023/12/01 11:43:11;;;;;;;18.77;11.50;;;4.70;25.80;;;;;;4987314;28;20452;-66
2023/12/01 11:45:37;;;;;;;21.67;13.90;;;4.70;25.70;;;;;;4992050;28;20515;-66
2023/12/01 11:48:08;;;;;;;21.20;13.20;;;4.70;25.90;;;;;;4985022;28;20527;-66
2023/12/01 11:50:37;;;;;;;22.00;14.10;;;4.70;25.90;;;;;;4984295;28;20984;-66
2023/12/01 11:53:04;;;;;;;21.00;13.10;;;4.70;26.50;;;;;;4994880;28;20462;-65
2023/12/01 11:55:32;;;;;;;23.50;13.30;;;4.70;25.80;;;;;;4992309;28;21003;-65
2023/12/01 11:57:59;;;;;;;18.53;11.87;;;4.70;25.70;;;;;;4988237;28;20480;-66
2023/12/01 12:00:27;;;;;;;21.37;14.00;;;4.70;25.70;;;;;;4987838;28;20453;-67
2023/12/01 12:02:54;;;;;;;18.90;12.73;;;4.70;25.60;;;;;;4991497;28;20527;-67
2023/12/01 12:05:21;;;;;;;20.10;13.37;;;4.70;25.60;;;;;;4988461;28;20972;-67
2023/12/01 12:07:48;;;;;;;18.03;11.80;;;4.70;25.70;;;;;;4988457;28;20484;-67
2023/12/01 12:10:16;;;;;;;18.80;12.50;;;4.70;25.70;;;;;;4982940;28;20484;-67
2023/12/01 12:12:43;;;;;;;21.40;13.90;;;4.70;25.70;;;;;;4990947;28;20551;-67
2023/12/01 12:15:13;;;;;;;19.50;12.97;;;4.70;25.70;;;;;;4992599;28;20542;-67
2023/12/01 12:17:41;;;;;;;16.73;11.90;;;4.70;25.50;;;;;;4992023;28;20489;-67
2023/12/01 12:20:11;;;;;;;19.00;12.40;;;4.70;25.50;;;;;;4986376;28;20471;-67
2023/12/01 12:22:39;;;;;;;18.60;11.83;;;4.70;25.50;;;;;;4991613;28;20464;-68
2023/12/01 12:25:09;;;;;;;18.60;12.97;;;4.70;26.10;;;;;;4992371;28;20457;-68
2023/12/01 12:27:40;;;;;;;18.60;11.47;;;4.70;25.60;;;;;;4992498;28;21080;-68
2023/12/01 12:30:09;;;;;;;18.10;11.80;;;4.70;26.30;;;;;;4986620;28;20567;-68
2023/12/01 12:32:36;;;;;;;19.20;12.37;;;4.60;25.50;;;;;;4984878;28;20560;-68
2023/12/01 12:35:06;;;;;;;16.77;11.50;;;4.60;25.60;;;;;;4987845;28;20567;-68
2023/12/01 12:37:33;;;;;;;17.00;11.60;;;4.60;25.50;;;;;;4990295;28;21081;-68
2023/12/01 12:40:00;;;;;;;17.93;12.90;;;4.70;25.60;;;;;;4989069;28;20456;-69
2023/12/01 12:42:27;;;;;;;17.90;11.50;;;4.70;25.50;;;;;;4987999;28;21027;-68
2023/12/01 12:44:55;;;;;;;18.73;12.80;;;4.70;25.50;;;;;;4989303;28;20458;-69